createdAt,value
2022-12-23T00:32:29.969Z,430.60
2022-12-23T00:37:30.272Z,429.30
2022-12-23T00:42:27.577Z,402.00
2022-12-23T00:47:28.846Z,472.90
2022-12-23T00:52:28.193Z,429.80
2022-12-23T00:57:25.466Z,405.00
2022-12-23T01:02:25.926Z,421.60
2022-12-23T01:07:24.944Z,416.60
2022-12-23T01:12:24.234Z,415.90
2022-12-23T01:17:23.749Z,416.70
2022-12-23T01:22:24.754Z,425.80
2022-12-23T01:27:23.026Z,420.30
2022-12-23T01:32:21.338Z,420.30
2022-12-23T01:37:20.659Z,420.30
2022-12-23T01:42:21.978Z,411.30
2022-12-23T01:47:19.269Z,429.90
2022-12-23T01:52:18.580Z,363.80
2022-12-23T01:57:18.847Z,451.30
2022-12-23T02:02:17.293Z,449.70
2022-12-23T02:07:17.264Z,446.50
2022-12-23T02:12:16.556Z,369.70
2022-12-23T02:17:14.983Z,384.70
2022-12-23T02:22:15.103Z,435.90
2022-12-23T02:27:13.392Z,430.90
2022-12-23T02:32:12.720Z,412.60
2022-12-23T02:37:11.989Z,427.30
2022-12-23T02:42:10.257Z,426.80
2022-12-23T02:47:11.564Z,450.00
2022-12-23T02:52:10.845Z,399.80
2022-12-23T02:57:09.128Z,412.50
2022-12-23T03:02:08.592Z,408.60
2022-12-23T03:07:11.427Z,412.90
2022-12-23T03:12:06.716Z,410.30
2022-12-23T03:17:07.008Z,412.20
2022-12-23T03:22:08.299Z,366.00
2022-12-23T03:27:04.612Z,380.00
2022-12-23T03:32:03.910Z,416.90
2022-12-23T03:37:03.212Z,403.40
2022-12-23T03:42:03.496Z,432.90
2022-12-23T03:47:01.834Z,420.50
2022-12-23T03:52:03.971Z,436.50
2022-12-23T03:57:02.260Z,424.20
2022-12-23T04:01:59.615Z,429.20
2022-12-23T04:06:58.743Z,424.10
2022-12-23T04:11:58.059Z,433.50
2022-12-23T04:16:57.370Z,431.70
2022-12-23T04:21:56.694Z,410.60
2022-12-23T04:26:57.033Z,446.00
2022-12-23T04:31:55.270Z,454.40
2022-12-23T04:36:55.433Z,413.40
2022-12-23T04:41:54.751Z,450.40
2022-12-23T04:46:53.131Z,432.30
2022-12-23T04:51:52.300Z,420.90
2022-12-23T04:56:51.641Z,393.70
2022-12-23T05:01:51.074Z,400.30
2022-12-23T05:06:52.096Z,428.80
2022-12-23T05:11:49.375Z,407.50
2022-12-23T05:16:48.737Z,432.70
2022-12-23T05:21:49.829Z,421.60
2022-12-23T05:26:48.070Z,422.50
2022-12-23T05:31:48.525Z,376.70
2022-12-23T05:36:45.746Z,404.50
2022-12-23T05:41:46.830Z,416.70
2022-12-23T05:46:44.279Z,384.30
2022-12-23T05:51:43.456Z,379.80
2022-12-23T05:56:43.797Z,379.80
2022-12-23T06:01:42.012Z,382.60
2022-12-23T06:06:41.212Z,382.60
2022-12-23T06:11:40.336Z,382.60
2022-12-23T06:16:39.539Z,382.60
2022-12-23T06:21:38.748Z,382.60
2022-12-23T06:26:37.888Z,382.60
2022-12-23T06:31:37.250Z,382.60
2022-12-23T06:36:36.305Z,382.60
2022-12-23T06:41:36.657Z,381.60
2022-12-23T06:46:37.804Z,399.30
2022-12-23T06:51:36.132Z,399.30
2022-12-23T06:56:34.431Z,372.90
2022-12-23T07:01:33.863Z,402.70
2022-12-23T07:06:32.057Z,420.30
2022-12-23T07:11:32.382Z,430.30
2022-12-23T07:16:32.756Z,422.50
2022-12-23T07:21:30.912Z,417.10
2022-12-23T07:26:30.200Z,398.90
2022-12-23T07:31:28.698Z,403.90
2022-12-23T07:36:28.846Z,410.90
2022-12-23T07:41:27.141Z,418.50
2022-12-23T07:46:26.539Z,428.60
2022-12-23T07:51:22.359Z,420.70
2022-12-23T07:56:24.924Z,419.90
2022-12-23T08:01:24.116Z,408.50
2022-12-23T08:06:23.237Z,431.20
2022-12-23T08:11:22.638Z,422.90
2022-12-23T08:16:22.787Z,380.00
2022-12-23T08:21:22.122Z,399.60
2022-12-23T08:26:21.244Z,417.10
2022-12-23T08:31:20.648Z,403.20
2022-12-23T08:36:23.003Z,408.00
2022-12-23T08:41:18.093Z,380.00
2022-12-23T08:46:17.446Z,422.30
2022-12-23T08:51:17.562Z,410.80
2022-12-23T08:56:15.681Z,424.50
2022-12-23T09:01:14.983Z,429.00
2022-12-23T09:06:15.287Z,417.60
2022-12-23T09:11:14.653Z,409.50
2022-12-23T09:16:13.780Z,385.60
2022-12-23T09:21:11.918Z,404.70
2022-12-23T09:26:12.212Z,410.80
2022-12-23T09:31:12.599Z,373.50
2022-12-23T09:36:09.747Z,423.40
2022-12-23T09:41:09.087Z,400.90
2022-12-23T09:46:08.439Z,399.40
2022-12-23T09:51:07.556Z,374.00
2022-12-23T09:56:06.860Z,394.10
2022-12-23T10:01:07.155Z,433.90
2022-12-23T10:06:05.508Z,369.20
2022-12-23T10:11:04.641Z,342.10
2022-12-23T10:16:04.012Z,387.40
2022-12-23T10:21:03.133Z,394.10
2022-12-23T10:26:03.429Z,404.10
2022-12-23T10:36:01.127Z,406.90
2022-12-23T10:41:05.342Z,408.30
2022-12-23T10:45:59.623Z,408.50
2022-12-23T10:50:58.941Z,400.00
2022-12-23T10:55:58.268Z,419.90
2022-12-23T11:00:58.597Z,403.10
2022-12-23T11:05:56.696Z,411.60
2022-12-23T11:10:56.053Z,413.70
2022-12-23T11:15:57.237Z,406.50
2022-12-23T11:20:54.306Z,421.80
2022-12-23T11:25:54.605Z,393.50
2022-12-23T11:30:56.239Z,436.90
2022-12-23T11:35:53.222Z,433.20
2022-12-23T11:40:52.531Z,423.50
2022-12-23T11:45:50.850Z,423.30
2022-12-23T11:50:49.957Z,407.70
2022-12-23T11:55:48.249Z,423.90
2022-12-23T12:00:55.138Z,402.30
2022-12-23T12:05:47.725Z,410.70
2022-12-23T12:10:46.862Z,418.20
2022-12-23T12:15:46.158Z,430.00
2022-12-23T12:20:45.445Z,419.70
2022-12-23T12:25:44.751Z,388.90
2022-12-23T12:30:45.128Z,404.50
2022-12-23T12:35:43.233Z,413.10
2022-12-23T12:40:42.541Z,401.80
2022-12-23T12:45:41.892Z,398.50
2022-12-23T12:50:44.207Z,406.50
2022-12-23T12:55:41.296Z,370.20
2022-12-23T13:00:39.567Z,451.70
2022-12-23T13:05:38.918Z,418.40
2022-12-23T13:10:38.045Z,366.30
2022-12-23T13:15:39.347Z,428.70
2022-12-23T13:20:36.637Z,419.40
2022-12-23T13:25:34.969Z,400.10
2022-12-23T13:30:35.356Z,439.90
2022-12-23T13:35:33.453Z,413.50
2022-12-23T13:40:32.769Z,403.60
2022-12-23T13:45:33.085Z,403.90
2022-12-23T13:50:32.386Z,383.00
2022-12-23T13:55:32.717Z,431.10
2022-12-23T14:00:32.011Z,377.60
2022-12-23T14:05:30.371Z,415.10
2022-12-23T14:10:29.477Z,428.90
2022-12-23T14:15:28.861Z,402.80
2022-12-23T14:20:27.960Z,426.00
2022-12-23T14:25:28.286Z,452.10
2022-12-23T14:30:26.607Z,421.50
2022-12-23T14:35:26.929Z,423.60
2022-12-23T14:40:25.295Z,405.90
2022-12-23T14:45:24.446Z,411.20
2022-12-23T14:50:25.779Z,396.60
2022-12-23T14:55:31.278Z,361.50
2022-12-23T15:00:23.314Z,418.30
2022-12-23T15:05:23.818Z,438.30
2022-12-23T15:10:22.710Z,413.00
2022-12-23T15:15:22.040Z,377.10
2022-12-23T15:20:19.342Z,409.40
2022-12-23T15:25:18.671Z,374.90
2022-12-23T15:30:17.964Z,422.70
2022-12-23T15:35:17.260Z,415.40
2022-12-23T15:40:17.608Z,380.10
2022-12-23T15:45:16.721Z,451.40
2022-12-23T15:50:16.075Z,405.40
2022-12-23T15:55:14.207Z,411.00
2022-12-23T16:00:13.547Z,425.90
2022-12-23T16:05:12.687Z,404.40
2022-12-23T16:10:11.850Z,401.70
2022-12-23T16:15:10.952Z,408.10
2022-12-23T16:20:12.277Z,439.90
2022-12-23T16:25:09.597Z,402.10
2022-12-23T16:30:09.952Z,445.00
2022-12-23T16:35:10.126Z,444.80
2022-12-23T16:40:07.234Z,406.80
2022-12-23T16:45:07.536Z,441.60
2022-12-23T16:50:06.853Z,408.30
2022-12-23T16:55:09.478Z,413.80
2022-12-23T17:00:04.355Z,391.00
2022-12-23T17:05:04.667Z,391.30
2022-12-23T17:10:02.988Z,397.60
2022-12-23T17:15:03.327Z,434.80
2022-12-23T17:20:02.653Z,422.90
2022-12-23T17:25:01.958Z,380.10
2022-12-23T17:30:02.125Z,403.20
2022-12-23T17:34:59.464Z,382.80
2022-12-23T17:40:00.607Z,261.40
2022-12-23T17:44:58.747Z,212.50
2022-12-23T17:49:57.079Z,175.70
2022-12-23T17:54:57.402Z,22.60
2022-12-23T17:59:55.706Z,131.00
2022-12-23T18:04:56.022Z,-134.50
2022-12-23T18:09:55.322Z,-92.80
2022-12-23T18:14:53.642Z,-92.80
2022-12-23T18:19:52.997Z,-92.80
2022-12-23T18:24:58.910Z,-92.80
2022-12-23T18:29:51.279Z,-92.80
2022-12-23T18:34:50.565Z,-92.80
2022-12-23T18:39:49.878Z,-92.80
2022-12-23T18:44:49.214Z,-92.80
2022-12-23T18:49:49.573Z,-92.80
2022-12-23T18:54:46.790Z,-92.80
2022-12-23T18:59:46.932Z,-92.80
2022-12-23T19:04:46.046Z,-92.80
2022-12-23T19:09:46.392Z,-92.80
2022-12-23T19:14:44.740Z,-92.80
2022-12-23T19:19:44.840Z,-92.80
2022-12-23T19:25:04.072Z,-92.80
2022-12-23T19:29:42.433Z,-92.80
2022-12-23T19:34:42.554Z,-92.80
2022-12-23T19:39:41.921Z,-92.80
2022-12-23T19:44:40.012Z,-92.80
2022-12-23T19:49:39.375Z,-92.80
2022-12-23T19:54:38.609Z,-92.80
2022-12-23T19:59:38.810Z,-92.80
2022-12-23T20:04:36.924Z,-92.80
2022-12-23T20:09:36.090Z,-92.80
2022-12-23T20:14:35.391Z,-92.80
2022-12-23T20:19:39.082Z,-92.80
2022-12-23T20:24:34.875Z,-92.80
2022-12-23T20:29:34.276Z,-92.80
2022-12-23T20:34:38.574Z,-92.80
2022-12-23T20:39:31.750Z,-92.80
2022-12-23T20:44:36.147Z,-92.80
2022-12-23T20:49:30.103Z,-92.80
2022-12-23T20:54:33.259Z,-92.80
2022-12-23T20:59:28.579Z,-92.80
2022-12-23T21:04:27.764Z,-92.80
2022-12-23T21:09:26.956Z,-92.80
2022-12-23T21:14:28.143Z,-92.80
2022-12-23T21:19:24.347Z,-92.80
2022-12-23T21:24:24.508Z,-92.80
2022-12-23T21:29:23.682Z,-92.80
2022-12-23T21:34:22.868Z,-92.80
2022-12-23T21:39:22.029Z,-92.80
2022-12-23T21:44:22.224Z,-92.80
2022-12-23T21:49:21.380Z,-92.80
2022-12-23T21:54:19.540Z,-92.80
2022-12-23T21:59:19.721Z,-92.80
2022-12-23T22:04:17.899Z,-92.80
2022-12-23T22:09:17.232Z,-92.80
2022-12-23T22:14:17.306Z,-92.80
2022-12-23T22:19:14.476Z,-92.80
2022-12-23T22:24:15.656Z,-92.80
2022-12-23T22:29:12.812Z,-92.80
2022-12-23T22:34:13.002Z,-92.80
2022-12-23T22:39:19.524Z,-92.80
2022-12-23T22:44:12.394Z,-92.80
2022-12-23T22:49:11.563Z,-92.80
2022-12-23T22:54:09.755Z,-92.80
2022-12-23T22:59:08.924Z,-92.80
2022-12-23T23:04:08.108Z,-92.80
2022-12-23T23:09:07.307Z,-92.80
2022-12-23T23:14:06.558Z,-92.80
2022-12-23T23:19:05.710Z,-92.80
2022-12-23T23:24:06.889Z,-92.80
2022-12-23T23:29:05.051Z,-92.80
2022-12-23T23:34:03.344Z,-95.90
2022-12-23T23:39:02.462Z,-97.50
2022-12-23T23:44:01.802Z,-95.10
2022-12-23T23:49:00.917Z,-95.10
2022-12-23T23:54:00.232Z,407.50
2022-12-23T23:59:00.493Z,409.80
